Time;durP1;ratioP1;P1;durP2;ratioP2;P2;SDS_P1;SDS_P2;PMS_P1;PMS_P2;Temp;Humidity;BMP_temperature;BMP_pressure;BME280_temperature;BME280_humidity;BME280_pressure;Samples;Min_cycle;Max_cycle;Signal;HPM_P1;HPM_P2
2021/08/19 00:01:22;;;;;;;14.95;7.40;;;17.60;83.40;;;;;;5031834;28;20052;-73
2021/08/19 00:03:48;;;;;;;16.55;7.95;;;17.60;83.60;;;;;;5044270;28;20061;-73
2021/08/19 00:06:14;;;;;;;13.95;7.20;;;17.60;83.70;;;;;;5041334;28;20117;-73
2021/08/19 00:08:41;;;;;;;12.50;6.78;;;17.60;83.70;;;;;;5032207;28;20708;-74
2021/08/19 00:11:08;;;;;;;12.05;7.35;;;17.60;83.60;;;;;;5039319;28;20125;-74
2021/08/19 00:13:33;;;;;;;12.68;7.53;;;17.60;83.70;;;;;;5030808;28;20112;-79
2021/08/19 00:15:59;;;;;;;13.73;7.05;;;17.60;83.70;;;;;;5037506;28;20683;-73
2021/08/19 00:18:25;;;;;;;14.75;7.57;;;17.60;83.70;;;;;;5035454;28;20476;-73
2021/08/19 00:20:51;;;;;;;13.75;7.05;;;17.60;83.70;;;;;;5052131;28;20468;-74
2021/08/19 00:23:17;;;;;;;14.15;7.50;;;17.60;83.80;;;;;;5038239;28;20045;-73
2021/08/19 00:25:43;;;;;;;14.27;7.32;;;17.60;83.90;;;;;;5032720;28;20457;-73
2021/08/19 00:28:08;;;;;;;14.90;7.68;;;17.60;83.90;;;;;;5038195;28;20083;-73
2021/08/19 00:30:34;;;;;;;11.90;7.90;;;17.60;83.90;;;;;;5038585;28;20373;-73
2021/08/19 00:33:00;;;;;;;17.83;7.60;;;17.60;84.00;;;;;;5044452;28;20132;-73
2021/08/19 00:35:25;;;;;;;14.88;7.57;;;17.60;84.00;;;;;;5042878;28;20029;-73
2021/08/19 00:37:51;;;;;;;12.25;7.13;;;17.60;83.90;;;;;;5036959;28;20065;-73
2021/08/19 00:40:17;;;;;;;13.35;7.68;;;17.60;83.90;;;;;;5044316;28;20365;-73
2021/08/19 00:42:42;;;;;;;14.82;7.07;;;17.60;83.90;;;;;;5038221;28;20053;-74
2021/08/19 00:45:09;;;;;;;12.70;7.28;;;17.60;84.00;;;;;;5035180;28;20036;-73
2021/08/19 00:47:38;;;;;;;13.20;7.43;;;17.60;84.20;;;;;;5034321;28;20038;-73
2021/08/19 00:50:06;;;;;;;16.42;8.20;;;17.60;84.30;;;;;;5044071;28;20119;-73
2021/08/19 00:52:32;;;;;;;14.52;7.80;;;17.60;84.10;;;;;;5035624;28;20040;-73
2021/08/19 00:54:59;;;;;;;14.85;7.85;;;17.60;84.30;;;;;;5045554;28;20029;-73
2021/08/19 00:57:25;;;;;;;15.68;8.32;;;17.60;84.30;;;;;;5037219;28;20505;-73
2021/08/19 00:59:52;;;;;;;19.30;8.35;;;17.60;84.30;;;;;;5047665;28;20497;-74
2021/08/19 01:02:20;;;;;;;16.20;7.57;;;17.60;84.50;;;;;;5031915;28;20045;-73
2021/08/19 01:04:46;;;;;;;14.13;7.45;;;17.60;84.60;;;;;;5031491;28;20042;-74
2021/08/19 01:07:12;;;;;;;17.60;8.98;;;17.60;84.50;;;;;;5042735;28;20029;-73
2021/08/19 01:09:40;;;;;;;15.57;7.53;;;17.60;84.50;;;;;;5026557;28;20120;-73
2021/08/19 01:12:08;;;;;;;15.63;8.00;;;17.60;84.40;;;;;;5040446;28;20125;-74
2021/08/19 01:14:34;;;;;;;13.98;8.23;;;17.60;84.40;;;;;;5031015;28;20021;-73
2021/08/19 01:17:06;;;;;;;15.00;7.80;;;17.60;84.30;;;;;;5038717;28;20124;-73
2021/08/19 01:19:32;;;;;;;16.65;8.30;;;17.60;84.30;;;;;;5030465;28;20076;-73
2021/08/19 01:21:58;;;;;;;14.10;7.13;;;17.60;84.30;;;;;;5032517;28;20046;-75
2021/08/19 01:24:23;;;;;;;12.45;7.63;;;17.60;84.50;;;;;;5022067;28;20038;-73
2021/08/19 01:26:49;;;;;;;14.20;7.47;;;17.60;84.60;;;;;;5008193;28;20030;-73
2021/08/19 01:29:15;;;;;;;16.30;7.10;;;17.60;84.70;;;;;;5009010;28;20030;-73
2021/08/19 01:31:54;;;;;;;13.15;7.18;;;17.50;84.60;;;;;;5009760;28;20117;-73
2021/08/19 01:34:19;;;;;;;15.10;7.00;;;17.60;84.60;;;;;;5028991;28;20025;-75
2021/08/19 01:36:45;;;;;;;13.15;6.97;;;17.60;84.60;;;;;;5037587;28;20029;-73
2021/08/19 01:39:11;;;;;;;14.77;7.70;;;17.60;84.50;;;;;;5043032;28;20029;-74
2021/08/19 01:41:36;;;;;;;21.02;7.32;;;17.50;84.70;;;;;;5032535;28;20041;-74
2021/08/19 01:44:02;;;;;;;16.17;7.25;;;17.60;84.70;;;;;;5028329;28;20178;-73
2021/08/19 01:46:28;;;;;;;12.25;7.47;;;17.50;84.70;;;;;;5025612;28;20523;-75
2021/08/19 01:48:53;;;;;;;12.85;7.47;;;17.50;84.70;;;;;;5027891;28;20524;-73
2021/08/19 01:51:20;;;;;;;17.52;8.15;;;17.50;84.80;;;;;;5027216;28;20022;-75
2021/08/19 01:53:52;;;;;;;16.20;7.45;;;17.40;84.90;;;;;;5031493;28;20033;-74
2021/08/19 01:56:19;;;;;;;14.93;7.60;;;17.50;84.90;;;;;;5021744;28;20025;-74
2021/08/19 01:58:45;;;;;;;18.38;8.02;;;17.50;84.90;;;;;;5030942;28;20034;-74
2021/08/19 02:01:16;;;;;;;15.20;7.93;;;17.50;84.90;;;;;;5036058;28;20083;-80
2021/08/19 02:03:42;;;;;;;16.63;7.40;;;17.40;85.10;;;;;;5029454;28;20037;-74
2021/08/19 02:06:08;;;;;;;17.33;7.68;;;17.40;85.00;;;;;;5029583;28;20036;-73
2021/08/19 02:08:33;;;;;;;14.23;7.50;;;17.40;85.00;;;;;;5028276;28;20378;-73
2021/08/19 02:10:59;;;;;;;14.55;8.23;;;17.40;84.80;;;;;;5034986;28;20040;-74
2021/08/19 02:13:25;;;;;;;16.33;7.45;;;17.40;85.10;;;;;;5037282;28;20029;-73
2021/08/19 02:15:50;;;;;;;16.50;8.50;;;17.40;85.10;;;;;;5036210;28;20532;-73
2021/08/19 02:18:16;;;;;;;14.73;8.45;;;17.40;85.10;;;;;;5028978;28;20030;-73
2021/08/19 02:20:42;;;;;;;14.88;8.32;;;17.40;85.00;;;;;;5029530;28;20041;-76
2021/08/19 02:23:07;;;;;;;15.43;8.43;;;17.40;85.10;;;;;;5033367;28;20045;-77
2021/08/19 02:25:33;;;;;;;16.70;9.30;;;17.40;85.20;;;;;;5026754;28;20114;-73
2021/08/19 02:27:59;;;;;;;16.30;8.48;;;17.40;85.00;;;;;;5034239;28;20061;-75
2021/08/19 02:30:25;;;;;;;13.15;7.43;;;17.40;85.10;;;;;;5026611;28;20368;-74
2021/08/19 02:32:55;;;;;;;14.77;7.32;;;17.40;85.20;;;;;;5046996;28;20045;-74
2021/08/19 02:35:22;;;;;;;14.57;7.53;;;17.40;85.30;;;;;;5049100;28;20037;-73
2021/08/19 02:37:48;;;;;;;16.70;7.78;;;17.40;85.20;;;;;;5036402;28;20037;-74
2021/08/19 02:40:14;;;;;;;13.40;7.13;;;17.30;85.30;;;;;;5035296;28;20029;-77
2021/08/19 02:42:40;;;;;;;14.27;7.80;;;17.40;85.40;;;;;;5044422;28;20092;-73
2021/08/19 02:45:06;;;;;;;14.75;8.32;;;17.40;85.20;;;;;;5028905;28;20042;-74
2021/08/19 02:47:31;;;;;;;14.73;9.05;;;17.40;85.30;;;;;;5036861;28;20162;-75
2021/08/19 02:49:57;;;;;;;13.38;8.55;;;17.40;85.40;;;;;;5049462;28;20036;-77
2021/08/19 02:52:24;;;;;;;15.07;8.60;;;17.40;85.30;;;;;;5040107;28;20324;-73
2021/08/19 02:54:50;;;;;;;20.40;8.73;;;17.40;85.40;;;;;;5013747;28;20026;-74
2021/08/19 02:57:16;;;;;;;15.43;9.18;;;17.30;85.50;;;;;;5007648;28;20435;-74
2021/08/19 02:59:42;;;;;;;16.55;9.32;;;17.30;85.60;;;;;;5009866;28;20042;-74
2021/08/19 03:02:08;;;;;;;16.88;8.65;;;17.30;85.70;;;;;;4996487;28;20038;-73
2021/08/19 03:04:33;;;;;;;13.65;8.82;;;17.30;85.70;;;;;;5009302;28;20903;-75
2021/08/19 03:06:59;;;;;;;13.00;8.77;;;17.30;85.60;;;;;;5009355;28;20030;-78
2021/08/19 03:09:25;;;;;;;14.52;8.35;;;17.30;85.80;;;;;;5009408;28;20030;-74
2021/08/19 03:11:50;;;;;;;14.18;8.98;;;17.30;85.70;;;;;;5009977;28;20038;-75
2021/08/19 03:14:17;;;;;;;14.27;9.15;;;17.30;85.90;;;;;;5008686;28;20030;-74
2021/08/19 03:16:43;;;;;;;15.27;8.85;;;17.30;86.00;;;;;;5010300;28;20034;-73
2021/08/19 03:19:09;;;;;;;15.60;9.05;;;17.30;86.00;;;;;;5035066;28;20040;-74
2021/08/19 03:21:36;;;;;;;15.98;9.43;;;17.30;86.10;;;;;;5029630;28;20592;-75
2021/08/19 03:24:03;;;;;;;16.80;9.63;;;17.20;86.30;;;;;;5023152;28;20038;-74
2021/08/19 03:26:28;;;;;;;13.30;9.13;;;17.10;86.50;;;;;;5004651;28;20108;-79
2021/08/19 03:28:54;;;;;;;16.63;8.93;;;17.10;86.60;;;;;;5008462;28;20045;-74
2021/08/19 03:31:20;;;;;;;15.15;8.95;;;17.20;86.60;;;;;;5012091;28;20120;-73
2021/08/19 03:33:46;;;;;;;17.48;8.77;;;17.20;86.50;;;;;;5013376;28;20401;-74
2021/08/19 03:36:12;;;;;;;12.95;7.82;;;17.10;86.60;;;;;;5012669;28;20440;-74
2021/08/19 03:38:37;;;;;;;13.60;7.75;;;17.10;86.60;;;;;;5019097;28;20105;-74
2021/08/19 03:41:03;;;;;;;12.52;7.40;;;17.20;86.60;;;;;;5031359;28;20045;-74
2021/08/19 03:43:29;;;;;;;11.93;7.78;;;17.20;86.40;;;;;;5037785;28;20063;-73
2021/08/19 03:45:54;;;;;;;16.73;7.90;;;17.20;86.50;;;;;;5044434;28;20044;-74
2021/08/19 03:48:21;;;;;;;14.38;7.63;;;17.10;86.50;;;;;;5044233;28;20128;-73
2021/08/19 03:50:47;;;;;;;15.35;7.05;;;17.10;86.70;;;;;;5041722;28;20032;-73
2021/08/19 03:53:12;;;;;;;18.10;8.18;;;17.10;86.80;;;;;;5041042;28;20037;-74
2021/08/19 03:55:38;;;;;;;13.63;7.40;;;17.10;87.10;;;;;;5048668;28;20060;-72
2021/08/19 03:58:04;;;;;;;13.75;7.57;;;17.00;87.20;;;;;;5049282;28;20037;-73
2021/08/19 04:00:30;;;;;;;15.38;7.70;;;17.00;87.40;;;;;;5033163;28;20026;-74
2021/08/19 04:02:55;;;;;;;11.02;6.85;;;17.00;87.50;;;;;;5032531;28;20033;-74
2021/08/19 04:05:21;;;;;;;16.02;7.95;;;17.00;87.20;;;;;;5036739;28;20079;-74
2021/08/19 04:07:47;;;;;;;13.63;7.32;;;17.00;87.20;;;;;;5052307;28;20037;-79
2021/08/19 04:10:13;;;;;;;11.85;7.28;;;17.00;87.20;;;;;;5036611;28;20028;-74
2021/08/19 04:12:39;;;;;;;13.73;7.43;;;17.00;87.30;;;;;;5036236;28;20033;-73
2021/08/19 04:15:06;;;;;;;11.63;7.47;;;17.00;87.30;;;;;;5029382;28;20112;-74
2021/08/19 04:17:32;;;;;;;13.75;7.25;;;17.00;87.10;;;;;;5044875;28;20033;-74
2021/08/19 04:19:58;;;;;;;13.00;7.75;;;17.10;87.10;;;;;;5045087;28;20112;-74
2021/08/19 04:22:24;;;;;;;15.68;7.38;;;17.00;87.20;;;;;;5036015;28;20133;-73
2021/08/19 04:24:50;;;;;;;13.88;7.40;;;17.00;87.10;;;;;;5036149;28;20041;-75
2021/08/19 04:27:15;;;;;;;13.23;7.40;;;17.00;87.10;;;;;;5029794;28;20052;-73
2021/08/19 04:29:41;;;;;;;12.65;7.70;;;17.00;87.20;;;;;;5037901;28;20049;-73
2021/08/19 04:32:07;;;;;;;14.10;8.48;;;16.90;87.40;;;;;;5046024;28;20033;-76
2021/08/19 04:34:33;;;;;;;12.48;8.38;;;16.90;87.30;;;;;;5031429;28;20476;-73
2021/08/19 04:36:58;;;;;;;14.38;7.70;;;16.80;87.40;;;;;;5031635;28;20022;-74
2021/08/19 04:39:24;;;;;;;16.02;8.32;;;16.70;87.70;;;;;;5031494;28;20033;-72
2021/08/19 04:41:50;;;;;;;16.90;7.95;;;16.60;87.70;;;;;;5032578;28;20034;-75
2021/08/19 04:44:17;;;;;;;14.55;8.43;;;16.60;87.80;;;;;;5039467;28;20086;-73
2021/08/19 04:46:43;;;;;;;11.70;7.85;;;16.60;88.00;;;;;;5037599;28;20041;-73
2021/08/19 04:49:08;;;;;;;14.65;7.30;;;16.50;88.20;;;;;;5029856;28;20037;-74
2021/08/19 04:51:35;;;;;;;10.18;7.78;;;16.60;88.10;;;;;;5031312;28;20032;-74
2021/08/19 04:54:02;;;;;;;15.70;9.20;;;16.60;88.20;;;;;;5031261;28;20037;-73
2021/08/19 04:56:30;;;;;;;13.13;8.18;;;16.60;88.30;;;;;;5030366;28;20436;-75
2021/08/19 04:58:57;;;;;;;13.30;8.48;;;16.60;88.30;;;;;;5032366;28;20120;-73
2021/08/19 05:01:23;;;;;;;16.05;9.45;;;16.60;88.10;;;;;;5032144;28;20058;-73
2021/08/19 05:03:48;;;;;;;15.32;8.75;;;16.60;88.10;;;;;;5049919;28;20477;-73
2021/08/19 05:06:14;;;;;;;13.45;8.90;;;16.60;88.00;;;;;;5037589;28;20034;-73
2021/08/19 05:08:39;;;;;;;14.57;8.77;;;16.70;87.80;;;;;;5036685;28;20381;-73
2021/08/19 05:11:05;;;;;;;12.75;8.30;;;16.70;87.30;;;;;;5036671;28;20034;-73
2021/08/19 05:13:31;;;;;;;13.50;8.55;;;16.70;87.50;;;;;;5036978;28;20035;-74
2021/08/19 05:15:57;;;;;;;13.55;8.48;;;16.90;87.40;;;;;;5037739;28;20121;-80
2021/08/19 05:18:24;;;;;;;15.23;9.02;;;16.90;87.20;;;;;;5024936;28;20124;-73
2021/08/19 05:20:49;;;;;;;14.23;8.85;;;16.90;87.00;;;;;;5037856;28;20041;-75
2021/08/19 05:23:15;;;;;;;13.50;8.20;;;16.90;86.80;;;;;;5030209;28;20115;-73
2021/08/19 05:25:41;;;;;;;14.45;7.90;;;16.90;86.70;;;;;;5031334;28;20087;-76
2021/08/19 05:28:06;;;;;;;18.48;8.60;;;16.90;86.50;;;;;;5040730;28;20036;-73
2021/08/19 05:30:32;;;;;;;13.73;8.27;;;17.10;86.40;;;;;;5039897;28;20163;-79
2021/08/19 05:32:58;;;;;;;13.43;7.63;;;17.00;85.90;;;;;;5030998;28;20037;-73
2021/08/19 05:35:23;;;;;;;14.25;7.85;;;17.00;85.70;;;;;;5028672;28;20518;-74
2021/08/19 05:37:49;;;;;;;10.75;7.50;;;17.10;85.60;;;;;;5030736;28;20075;-72
2021/08/19 05:40:15;;;;;;;13.70;7.50;;;17.10;85.20;;;;;;5031493;28;20469;-71
2021/08/19 05:42:40;;;;;;;13.15;6.70;;;17.10;85.20;;;;;;5045949;28;20037;-74
2021/08/19 05:45:07;;;;;;;16.10;7.68;;;17.10;84.80;;;;;;5030496;28;20041;-71
2021/08/19 05:47:32;;;;;;;11.90;7.22;;;17.10;84.70;;;;;;5039744;28;20025;-71
2021/08/19 05:49:58;;;;;;;14.00;7.25;;;17.10;84.80;;;;;;5045003;28;20025;-71
2021/08/19 05:52:23;;;;;;;15.85;7.68;;;17.10;84.60;;;;;;5039110;28;20082;-72
2021/08/19 05:54:49;;;;;;;12.40;7.30;;;17.10;84.50;;;;;;5030598;28;20469;-72
2021/08/19 05:57:16;;;;;;;13.13;6.80;;;17.10;84.50;;;;;;5033920;28;20041;-72
2021/08/19 05:59:43;;;;;;;12.75;6.72;;;17.10;84.30;;;;;;5028482;28;20037;-72
2021/08/19 06:02:09;;;;;;;11.57;6.78;;;17.30;84.00;;;;;;5033688;28;20035;-71
2021/08/19 06:04:36;;;;;;;16.35;6.68;;;17.40;83.50;;;;;;5036874;28;20029;-72
2021/08/19 06:07:02;;;;;;;14.27;6.72;;;17.40;83.10;;;;;;5035538;28;20025;-71
2021/08/19 06:09:28;;;;;;;11.18;6.53;;;17.30;83.30;;;;;;5037224;28;20029;-71
2021/08/19 06:11:54;;;;;;;15.35;6.88;;;17.30;83.20;;;;;;5022999;28;20132;-71
2021/08/19 06:14:19;;;;;;;15.73;6.80;;;17.40;83.10;;;;;;5037843;28;20037;-72
2021/08/19 06:16:45;;;;;;;15.30;6.28;;;17.40;82.70;;;;;;5035148;28;20045;-73
2021/08/19 06:19:11;;;;;;;14.40;6.53;;;17.50;82.90;;;;;;5042715;28;20036;-72
2021/08/19 06:21:36;;;;;;;14.07;6.28;;;17.60;82.60;;;;;;5046846;28;20037;-71
2021/08/19 06:24:02;;;;;;;12.18;5.60;;;17.60;82.50;;;;;;5035333;28;20041;-71
2021/08/19 06:26:28;;;;;;;13.73;6.50;;;17.70;82.40;;;;;;5046281;28;20036;-72
2021/08/19 06:28:54;;;;;;;15.55;6.45;;;17.80;82.00;;;;;;5042038;28;20076;-72
2021/08/19 06:31:19;;;;;;;14.25;6.63;;;17.80;81.40;;;;;;5037597;28;20088;-72
2021/08/19 06:33:45;;;;;;;12.32;5.65;;;17.90;81.30;;;;;;5038771;28;20099;-72
2021/08/19 06:36:12;;;;;;;14.13;5.70;;;18.00;80.60;;;;;;5040854;28;20421;-72
2021/08/19 06:38:37;;;;;;;11.85;6.13;;;18.10;80.00;;;;;;5029470;28;20103;-71
2021/08/19 06:41:03;;;;;;;12.07;5.65;;;18.10;79.50;;;;;;5038196;28;20452;-72
2021/08/19 06:43:29;;;;;;;13.70;5.70;;;18.30;79.40;;;;;;5033333;28;20042;-72
2021/08/19 06:45:55;;;;;;;13.30;5.65;;;18.50;79.30;;;;;;5025808;28;20049;-72
2021/08/19 06:48:20;;;;;;;11.15;6.65;;;18.40;79.10;;;;;;5030021;28;20049;-71
2021/08/19 06:50:46;;;;;;;11.70;5.75;;;18.40;78.40;;;;;;5039838;28;20484;-71
2021/08/19 06:53:12;;;;;;;12.65;5.97;;;18.50;78.30;;;;;;5033085;28;20045;-72
2021/08/19 06:55:37;;;;;;;13.55;6.10;;;18.60;78.50;;;;;;5032528;28;20025;-73
2021/08/19 06:58:03;;;;;;;10.70;6.00;;;18.60;77.70;;;;;;5037918;28;20033;-74
2021/08/19 07:00:29;;;;;;;11.85;5.47;;;18.50;77.60;;;;;;5033965;28;20037;-72
2021/08/19 07:02:54;;;;;;;10.18;5.25;;;18.60;77.20;;;;;;5040883;28;20041;-73
2021/08/19 07:05:20;;;;;;;14.35;5.78;;;18.60;77.30;;;;;;5037405;28;20056;-72
2021/08/19 07:07:46;;;;;;;11.07;5.30;;;18.70;77.30;;;;;;5038996;28;20449;-72
2021/08/19 07:10:12;;;;;;;14.48;5.55;;;18.80;77.20;;;;;;5032720;28;20472;-71
2021/08/19 07:12:38;;;;;;;11.45;5.22;;;18.80;76.90;;;;;;5045667;28;20164;-72
2021/08/19 07:15:06;;;;;;;9.80;4.65;;;18.80;76.20;;;;;;5037484;28;20030;-72
2021/08/19 07:17:32;;;;;;;10.77;5.55;;;18.80;76.60;;;;;;5032034;28;20199;-72
2021/08/19 07:19:58;;;;;;;11.40;5.53;;;18.60;76.50;;;;;;5052725;28;20535;-72
2021/08/19 07:22:23;;;;;;;9.95;5.40;;;18.60;76.70;;;;;;5040102;28;20466;-71
2021/08/19 07:24:49;;;;;;;11.88;4.95;;;18.50;76.90;;;;;;5032761;28;20543;-71
2021/08/19 07:27:15;;;;;;;10.82;5.32;;;18.60;76.80;;;;;;5044795;28;20026;-72
2021/08/19 07:29:41;;;;;;;12.32;4.90;;;18.70;76.90;;;;;;5046428;28;20504;-71
2021/08/19 07:32:07;;;;;;;10.45;4.63;;;18.70;76.80;;;;;;5047422;28;20154;-71
2021/08/19 07:34:32;;;;;;;9.68;4.18;;;18.70;75.80;;;;;;5032736;28;20022;-72
2021/08/19 07:36:58;;;;;;;13.38;4.63;;;18.60;75.90;;;;;;5034316;28;20037;-71
2021/08/19 07:39:24;;;;;;;13.90;5.15;;;18.60;76.10;;;;;;5045087;28;20041;-72
2021/08/19 07:41:49;;;;;;;10.48;5.00;;;18.60;76.60;;;;;;5039220;28;20053;-72
2021/08/19 07:44:15;;;;;;;9.93;4.60;;;18.60;76.10;;;;;;5041032;28;20053;-71
2021/08/19 07:46:41;;;;;;;10.40;4.90;;;18.60;76.00;;;;;;5034804;28;20469;-71
2021/08/19 07:49:06;;;;;;;10.57;5.53;;;18.70;75.90;;;;;;5052419;28;20551;-71
2021/08/19 07:51:34;;;;;;;8.52;4.63;;;18.80;75.40;;;;;;5030949;28;20037;-71
2021/08/19 07:54:00;;;;;;;9.77;4.80;;;18.80;75.40;;;;;;5032325;28;20140;-71
2021/08/19 07:56:26;;;;;;;9.23;3.75;;;19.00;75.10;;;;;;5011237;28;20053;-73
2021/08/19 07:58:51;;;;;;;10.55;5.13;;;18.90;74.60;;;;;;5012494;28;20477;-71
2021/08/19 08:01:17;;;;;;;11.07;4.20;;;18.90;74.00;;;;;;5003128;28;20030;-71
2021/08/19 08:03:43;;;;;;;10.63;3.97;;;18.90;74.40;;;;;;5022434;28;20133;-72
2021/08/19 08:06:10;;;;;;;11.43;4.63;;;18.80;74.70;;;;;;5040110;28;20030;-71
2021/08/19 08:08:36;;;;;;;8.75;4.32;;;18.80;73.90;;;;;;5050675;28;20021;-72
2021/08/19 08:11:02;;;;;;;8.75;4.25;;;18.70;74.40;;;;;;5051512;28;20124;-73
2021/08/19 08:13:27;;;;;;;12.00;4.43;;;18.80;74.80;;;;;;5032672;28;20030;-72
2021/08/19 08:15:53;;;;;;;8.45;4.45;;;18.60;74.90;;;;;;5036268;28;20200;-71
2021/08/19 08:18:19;;;;;;;8.70;4.00;;;18.60;75.40;;;;;;5030241;28;20033;-72
2021/08/19 08:20:45;;;;;;;9.75;3.63;;;18.60;75.00;;;;;;5032570;28;20029;-72
2021/08/19 08:23:11;;;;;;;10.65;3.92;;;18.70;74.80;;;;;;5037334;28;20045;-72
2021/08/19 08:25:37;;;;;;;10.32;3.58;;;18.60;74.70;;;;;;5029451;28;20492;-72
2021/08/19 08:28:08;;;;;;;9.93;4.30;;;18.60;74.80;;;;;;5033931;28;20077;-76
2021/08/19 08:30:35;;;;;;;10.80;4.47;;;18.70;74.70;;;;;;5031396;28;20025;-71
2021/08/19 08:33:01;;;;;;;11.63;4.50;;;18.80;74.80;;;;;;5031527;28;20133;-71
2021/08/19 08:35:30;;;;;;;10.63;4.53;;;18.80;74.50;;;;;;5035010;28;20456;-71
2021/08/19 08:37:56;;;;;;;11.15;4.90;;;18.90;74.80;;;;;;5035703;28;20079;-71
2021/08/19 08:40:23;;;;;;;11.02;4.97;;;19.00;74.20;;;;;;5040015;28;20029;-72
2021/08/19 08:42:49;;;;;;;8.98;4.60;;;19.00;74.50;;;;;;5031604;28;20038;-72
2021/08/19 08:45:17;;;;;;;9.57;3.88;;;19.00;74.40;;;;;;5043034;28;20028;-73
2021/08/19 08:47:45;;;;;;;9.10;4.18;;;19.10;74.10;;;;;;5041681;28;20491;-71
2021/08/19 08:50:11;;;;;;;8.13;3.58;;;19.10;73.60;;;;;;5035897;28;20466;-71
2021/08/19 08:52:38;;;;;;;8.57;3.90;;;19.20;74.30;;;;;;5040616;28;20045;-71
2021/08/19 08:55:05;;;;;;;9.98;3.17;;;19.10;73.80;;;;;;5031305;28;20385;-71
2021/08/19 08:57:35;;;;;;;5.18;2.83;;;19.10;73.10;;;;;;5042524;28;20532;-72
2021/08/19 09:00:04;;;;;;;5.93;2.83;;;19.10;73.10;;;;;;5049288;28;20376;-72
2021/08/19 09:02:30;;;;;;;9.23;3.03;;;19.20;72.90;;;;;;5020087;28;20123;-72
2021/08/19 09:05:15;;;;;;;21.80;5.45;;;19.30;72.70;;;;;;5031606;28;20366;-72
2021/08/19 09:07:41;;;;;;;10.25;3.58;;;19.50;71.90;;;;;;5017756;28;20038;-71
2021/08/19 09:10:08;;;;;;;8.02;3.92;;;19.40;72.40;;;;;;5015664;28;20034;-72
2021/08/19 09:12:42;;;;;;;9.38;3.10;;;19.50;72.20;;;;;;5018045;28;20033;-74
2021/08/19 09:15:11;;;;;;;8.65;3.38;;;19.50;72.20;;;;;;5010396;28;20397;-73
2021/08/19 09:17:41;;;;;;;8.57;3.78;;;19.60;71.80;;;;;;5010941;28;20054;-72
2021/08/19 09:20:07;;;;;;;6.50;3.55;;;19.50;72.10;;;;;;5000588;28;20412;-73
2021/08/19 09:23:12;;;;;;;10.23;3.75;;;19.60;72.00;;;;;;5007692;28;20049;-76
2021/08/19 09:25:39;;;;;;;9.02;3.05;;;19.60;71.10;;;;;;5025031;28;20103;-72
2021/08/19 09:28:21;;;;;;;6.57;2.80;;;19.50;71.30;;;;;;5037374;28;20116;-73
2021/08/19 09:30:55;;;;;;;5.68;2.30;;;19.60;70.70;;;;;;5040617;28;20083;-72
2021/08/19 09:33:28;;;;;;;5.90;2.40;;;19.40;70.50;;;;;;5029909;28;20073;-72
2021/08/19 09:35:58;;;;;;;4.75;2.15;;;19.50;69.50;;;;;;5043396;28;20124;-73
2021/08/19 09:38:26;;;;;;;6.65;2.30;;;19.60;69.10;;;;;;5030048;28;20026;-73
2021/08/19 09:41:17;;;;;;;5.20;2.50;;;19.70;69.00;;;;;;5037571;28;20049;-73
2021/08/19 09:43:53;;;;;;;5.95;2.20;;;19.80;69.30;;;;;;5012074;28;20048;-72
2021/08/19 09:46:39;;;;;;;8.35;2.83;;;19.90;68.40;;;;;;5036174;28;20040;-72
2021/08/19 09:49:22;;;;;;;6.78;2.55;;;20.00;68.60;;;;;;5027818;28;20060;-73
2021/08/19 09:52:03;;;;;;;9.55;3.55;;;19.90;68.00;;;;;;5042687;28;20457;-73
2021/08/19 09:54:37;;;;;;;8.77;2.83;;;19.80;68.30;;;;;;5009850;28;20081;-72
2021/08/19 09:57:03;;;;;;;6.30;2.72;;;19.80;68.30;;;;;;5008425;28;20495;-72
2021/08/19 09:59:39;;;;;;;6.85;2.78;;;20.10;68.00;;;;;;5010811;28;20022;-72
2021/08/19 10:02:07;;;;;;;7.10;2.70;;;20.00;67.50;;;;;;5009826;28;20501;-72
2021/08/19 10:04:33;;;;;;;5.32;2.33;;;20.20;66.80;;;;;;5023845;28;20037;-73
2021/08/19 10:07:00;;;;;;;6.18;2.72;;;20.10;66.00;;;;;;5034066;28;20029;-72
2021/08/19 10:09:26;;;;;;;8.60;2.60;;;20.00;66.10;;;;;;5048210;28;20051;-71
2021/08/19 10:11:53;;;;;;;8.25;2.58;;;19.70;66.70;;;;;;5036545;28;20468;-72
2021/08/19 10:14:24;;;;;;;6.95;2.83;;;19.70;66.90;;;;;;5035662;28;20529;-72
2021/08/19 10:16:50;;;;;;;6.05;2.67;;;19.40;68.00;;;;;;5029815;28;20567;-73
2021/08/19 10:19:28;;;;;;;8.02;3.50;;;19.30;68.70;;;;;;5042826;28;20036;-75
2021/08/19 10:22:11;;;;;;;6.78;3.03;;;19.20;69.30;;;;;;5032669;28;20060;-72
2021/08/19 10:24:40;;;;;;;5.90;2.67;;;19.00;69.70;;;;;;5020665;28;20397;-77
2021/08/19 10:27:13;;;;;;;6.28;3.20;;;19.10;70.70;;;;;;5012406;28;20096;-76
2021/08/19 10:29:45;;;;;;;7.07;3.05;;;19.20;70.60;;;;;;4997763;28;20041;-71
2021/08/19 10:32:27;;;;;;;9.25;3.45;;;19.20;70.40;;;;;;5009099;28;20567;-72
2021/08/19 10:34:57;;;;;;;6.95;3.30;;;19.40;70.50;;;;;;5010049;28;20657;-71
2021/08/19 10:37:46;;;;;;;7.38;3.20;;;19.40;69.80;;;;;;5007264;28;20023;-72
2021/08/19 10:40:24;;;;;;;10.18;3.63;;;19.40;69.70;;;;;;5012663;28;20042;-71
2021/08/19 10:42:54;;;;;;;8.57;3.33;;;19.60;70.40;;;;;;5024248;28;20061;-72
2021/08/19 10:45:28;;;;;;;6.55;3.22;;;19.80;69.50;;;;;;5046434;28;20047;-72
2021/08/19 10:48:06;;;;;;;7.18;3.45;;;20.20;68.30;;;;;;5045178;28;20048;-71
2021/08/19 10:50:38;;;;;;;7.03;3.15;;;20.50;67.80;;;;;;5033693;28;20033;-72
2021/08/19 10:53:17;;;;;;;7.75;3.42;;;20.60;66.50;;;;;;5016497;28;20066;-71
2021/08/19 10:55:52;;;;;;;7.90;3.50;;;20.60;65.40;;;;;;5013481;28;20033;-72
2021/08/19 10:58:37;;;;;;;8.60;3.83;;;20.50;66.00;;;;;;5003057;28;20034;-72
2021/08/19 11:01:16;;;;;;;6.05;2.85;;;20.50;66.70;;;;;;5003931;28;20047;-76
2021/08/19 11:03:44;;;;;;;7.95;3.00;;;20.30;64.90;;;;;;5012985;28;20045;-71
2021/08/19 11:06:26;;;;;;;10.23;2.92;;;20.20;65.60;;;;;;5013121;28;20034;-72
2021/08/19 11:08:55;;;;;;;8.07;2.80;;;20.00;65.10;;;;;;5012624;28;20037;-71
2021/08/19 11:11:38;;;;;;;6.70;3.15;;;20.10;65.90;;;;;;5046929;28;21928;-72
2021/08/19 11:14:14;;;;;;;7.60;3.75;;;20.20;64.60;;;;;;5041702;28;20106;-72
2021/08/19 11:16:41;;;;;;;12.75;3.42;;;20.10;64.30;;;;;;5033750;28;20038;-72
2021/08/19 11:19:11;;;;;;;7.88;3.28;;;20.30;64.50;;;;;;5029925;28;20030;-72
2021/08/19 11:21:38;;;;;;;8.10;3.20;;;20.30;65.20;;;;;;5023566;28;20072;-71
2021/08/19 11:24:06;;;;;;;8.45;3.38;;;20.40;65.10;;;;;;5040075;28;20048;-71
2021/08/19 11:26:31;;;;;;;7.53;2.80;;;20.30;64.40;;;;;;5051050;28;20025;-72
2021/08/19 11:28:57;;;;;;;7.72;3.00;;;20.30;65.20;;;;;;5037982;28;20561;-72
2021/08/19 11:31:25;;;;;;;7.55;3.42;;;20.20;65.70;;;;;;5034047;28;20033;-71
2021/08/19 11:34:01;;;;;;;6.97;3.40;;;20.00;66.00;;;;;;5048009;28;20041;-71
2021/08/19 11:36:27;;;;;;;7.90;3.25;;;19.80;66.60;;;;;;5032865;28;20031;-71
2021/08/19 11:39:11;;;;;;;7.60;3.30;;;19.90;66.60;;;;;;5026995;28;20025;-71
2021/08/19 11:41:37;;;;;;;12.52;3.80;;;20.00;66.80;;;;;;5020942;28;20034;-71
2021/08/19 11:44:06;;;;;;;8.27;3.60;;;19.90;66.60;;;;;;5012435;28;20571;-71
2021/08/19 11:46:32;;;;;;;7.70;3.70;;;20.00;66.30;;;;;;5010658;28;20557;-72
2021/08/19 11:49:00;;;;;;;12.30;4.13;;;20.10;66.70;;;;;;5012367;28;20551;-71
2021/08/19 11:51:32;;;;;;;7.68;3.30;;;20.00;66.90;;;;;;5012416;28;20109;-71
2021/08/19 11:53:59;;;;;;;9.27;3.63;;;20.00;67.20;;;;;;5013280;28;20473;-71
2021/08/19 11:56:27;;;;;;;8.38;3.17;;;20.00;67.50;;;;;;5015370;28;20033;-71
2021/08/19 11:59:02;;;;;;;7.72;2.80;;;20.00;67.70;;;;;;5032010;28;20387;-71
2021/08/19 12:01:27;;;;;;;6.88;3.00;;;20.10;67.80;;;;;;5013240;28;20044;-71
2021/08/19 12:03:53;;;;;;;7.63;3.05;;;20.10;67.00;;;;;;5011063;28;20054;-71
2021/08/19 12:06:19;;;;;;;8.45;3.13;;;20.10;67.80;;;;;;5011912;28;20120;-72
2021/08/19 12:08:47;;;;;;;10.15;3.33;;;20.00;67.50;;;;;;5020569;28;20048;-72
2021/08/19 12:11:19;;;;;;;5.90;2.50;;;20.00;68.60;;;;;;5036450;28;20030;-70
2021/08/19 12:13:46;;;;;;;6.90;2.80;;;19.90;68.60;;;;;;5026351;28;20053;-74
2021/08/19 12:16:12;;;;;;;6.88;3.00;;;19.80;69.60;;;;;;5030740;28;20117;-70
2021/08/19 12:18:37;;;;;;;9.70;3.28;;;19.70;68.80;;;;;;5031911;28;20133;-73
2021/08/19 12:21:20;;;;;;;7.38;3.25;;;19.60;69.40;;;;;;5032441;28;20124;-73
2021/08/19 12:23:47;;;;;;;8.68;3.15;;;19.60;69.10;;;;;;5034297;28;20045;-73
2021/08/19 12:26:17;;;;;;;7.95;3.60;;;19.60;69.50;;;;;;5044990;28;20071;-72
2021/08/19 12:28:56;;;;;;;10.38;3.40;;;19.60;69.60;;;;;;5038935;28;20033;-71
2021/08/19 12:31:23;;;;;;;8.73;3.53;;;19.70;68.70;;;;;;5031393;28;20049;-72
2021/08/19 12:34:03;;;;;;;7.55;3.50;;;19.80;67.50;;;;;;5031533;28;20120;-72
2021/08/19 12:36:33;;;;;;;7.45;3.00;;;19.90;66.10;;;;;;5016053;28;20141;-71
2021/08/19 12:39:13;;;;;;;7.47;3.10;;;20.10;66.00;;;;;;5014527;28;20029;-74
2021/08/19 12:41:39;;;;;;;8.95;3.72;;;20.40;66.00;;;;;;5038195;28;20087;-71
2021/08/19 12:44:07;;;;;;;10.13;3.38;;;20.60;65.00;;;;;;5045956;28;20045;-72